Time;durP1;ratioP1;P1;durP2;ratioP2;P2;SDS_P1;SDS_P2;PMS_P1;PMS_P2;Temp;Humidity;BMP_temperature;BMP_pressure;BME280_temperature;BME280_humidity;BME280_pressure;Samples;Min_cycle;Max_cycle;Signal;HPM_P1;HPM_P2
2022/02/17 00:00:36;;;;;;;17.10;15.40;;;9.90;99.90;;;;;;4956870;28;20034;-85
2022/02/17 00:03:02;;;;;;;17.98;15.35;;;9.80;1.00;;;;;;4956615;28;20030;-85
2022/02/17 00:05:27;;;;;;;19.08;15.43;;;9.90;99.90;;;;;;4955779;29;20089;-85
2022/02/17 00:07:54;;;;;;;17.90;16.20;;;10.10;99.90;;;;;;4956726;28;20039;-85
2022/02/17 00:10:23;;;;;;;18.02;16.23;;;10.20;1.00;;;;;;4941880;29;20388;-85
2022/02/17 00:12:49;;;;;;;17.95;16.15;;;10.50;1.00;;;;;;4956330;28;20027;-85
2022/02/17 00:15:15;;;;;;;16.45;14.93;;;10.40;1.00;;;;;;4956157;28;20118;-85
2022/02/17 00:17:41;;;;;;;17.98;16.08;;;10.20;99.90;;;;;;4955866;28;20179;-85
2022/02/17 00:20:08;;;;;;;16.73;15.13;;;10.60;1.00;;;;;;4955255;28;20078;-85
2022/02/17 00:22:34;;;;;;;18.13;16.20;;;10.30;1.00;;;;;;4956054;28;20032;-85
2022/02/17 00:25:00;;;;;;;18.27;15.52;;;10.30;1.00;;;;;;4955879;28;20023;-85
2022/02/17 00:27:25;;;;;;;19.58;16.13;;;10.10;1.00;;;;;;4955722;28;20557;-85
2022/02/17 00:29:51;;;;;;;19.33;16.65;;;10.00;1.00;;;;;;4939653;28;20034;-85
2022/02/17 00:32:17;;;;;;;18.20;16.33;;;9.80;1.00;;;;;;4955128;29;20039;-85
2022/02/17 00:34:42;;;;;;;18.83;16.83;;;9.80;1.00;;;;;;4955726;28;20039;-85
2022/02/17 00:37:08;;;;;;;18.70;16.60;;;10.20;1.00;;;;;;4955466;28;20500;-84
2022/02/17 00:39:34;;;;;;;17.80;15.98;;;10.20;1.00;;;;;;4955504;28;20039;-84
2022/02/17 00:42:01;;;;;;;18.00;16.10;;;9.90;1.00;;;;;;4956007;28;20037;-85
2022/02/17 00:44:27;;;;;;;19.02;16.92;;;10.00;1.00;;;;;;4950922;29;20042;-85
2022/02/17 00:46:56;;;;;;;17.67;15.88;;;10.10;1.00;;;;;;4955201;28;20027;-85
2022/02/17 00:49:23;;;;;;;17.80;15.50;;;10.10;1.00;;;;;;4955821;28;20027;-85
2022/02/17 00:51:50;;;;;;;18.17;16.27;;;10.00;1.00;;;;;;4955627;28;20082;-85
2022/02/17 00:54:15;;;;;;;20.23;17.70;;;10.10;1.00;;;;;;4955282;28;20035;-85
2022/02/17 00:56:41;;;;;;;19.67;16.30;;;10.00;1.00;;;;;;4955144;28;20027;-85
2022/02/17 00:59:07;;;;;;;17.95;16.15;;;9.80;1.00;;;;;;4954993;28;20797;-85
2022/02/17 01:01:32;;;;;;;18.23;16.33;;;9.80;1.00;;;;;;4955927;28;20034;-85
2022/02/17 01:03:58;;;;;;;18.45;16.55;;;10.00;1.00;;;;;;4940472;29;20378;-85
2022/02/17 01:06:24;;;;;;;19.23;17.25;;;9.90;1.00;;;;;;4955810;28;20043;-85
2022/02/17 01:08:49;;;;;;;18.48;16.50;;;10.10;1.00;;;;;;4955907;28;20070;-85
2022/02/17 01:11:15;;;;;;;19.38;17.33;;;9.90;1.00;;;;;;4954659;29;20098;-84
2022/02/17 01:37:27;;;;;;;18.67;16.65;;;10.00;1.00;;;;;;4953270;28;20093;-85
2022/02/17 01:39:53;;;;;;;19.77;16.90;;;10.10;1.00;;;;;;4955030;28;20518;-85
2022/02/17 01:42:19;;;;;;;18.67;16.20;;;9.60;1.00;;;;;;4954539;28;20035;-85
2022/02/17 01:44:46;;;;;;;16.75;15.05;;;9.30;1.00;;;;;;4954910;28;20028;-85
2022/02/17 01:47:14;;;;;;;17.20;15.40;;;9.40;1.00;;;;;;4951919;29;20027;-85
2022/02/17 01:49:41;;;;;;;18.60;16.55;;;9.30;1.00;;;;;;4954830;28;20030;-85
2022/02/17 01:52:07;;;;;;;17.58;15.68;;;9.60;1.00;;;;;;4954070;28;20031;-85
2022/02/17 01:54:33;;;;;;;17.90;16.00;;;9.30;1.00;;;;;;4954310;28;20039;-85
2022/02/17 01:57:03;;;;;;;17.25;15.45;;;9.30;1.00;;;;;;4955035;28;20037;-85
2022/02/17 01:59:29;;;;;;;18.77;16.77;;;9.40;1.00;;;;;;4949989;29;20046;-85
2022/02/17 02:01:54;;;;;;;18.88;16.92;;;9.50;1.00;;;;;;4954215;28;20043;-85
2022/02/17 02:04:20;;;;;;;21.08;17.58;;;9.20;1.00;;;;;;4954391;28;20035;-85
2022/02/17 02:06:46;;;;;;;20.70;18.45;;;9.20;1.00;;;;;;4954388;28;20024;-85
2022/02/17 02:09:16;;;;;;;20.13;18.02;;;9.20;1.00;;;;;;4954827;28;20475;-85
2022/02/17 02:11:42;;;;;;;20.38;17.85;;;9.40;1.00;;;;;;4953991;28;20078;-85
2022/02/17 02:14:15;;;;;;;21.05;18.85;;;9.50;1.00;;;;;;4953509;28;20035;-85
2022/02/17 02:16:41;;;;;;;19.48;17.50;;;9.50;1.00;;;;;;4954331;28;20066;-85
2022/02/17 02:19:07;;;;;;;20.60;18.23;;;9.60;1.00;;;;;;4954281;28;20023;-85
2022/02/17 02:21:33;;;;;;;20.63;18.58;;;9.60;1.00;;;;;;4954199;28;20495;-85
2022/02/17 02:23:58;;;;;;;20.13;18.02;;;9.60;1.00;;;;;;4954317;28;20447;-85
2022/02/17 02:26:27;;;;;;;21.30;18.52;;;9.60;1.00;;;;;;4953471;29;20038;-85
2022/02/17 02:28:53;;;;;;;20.92;18.20;;;10.10;1.00;;;;;;4953867;28;20035;-85
2022/02/17 02:31:19;;;;;;;20.40;18.40;;;10.10;1.00;;;;;;4953783;28;20526;-85
2022/02/17 02:33:45;;;;;;;20.40;18.35;;;9.80;1.00;;;;;;4953516;28;20475;-85
2022/02/17 02:36:11;;;;;;;19.90;17.80;;;9.70;1.00;;;;;;4954311;28;20019;-85
2022/02/17 02:38:37;;;;;;;20.27;18.17;;;9.80;1.00;;;;;;4952967;28;20109;-85
2022/02/17 02:41:02;;;;;;;21.05;18.70;;;9.80;1.00;;;;;;4954303;28;20558;-85
2022/02/17 02:43:28;;;;;;;21.45;19.15;;;9.90;1.00;;;;;;4954095;28;20543;-85
2022/02/17 02:45:54;;;;;;;20.90;18.70;;;9.90;1.00;;;;;;4954278;28;20090;-85
2022/02/17 02:48:19;;;;;;;19.63;17.08;;;9.90;1.00;;;;;;4953985;28;20088;-85
2022/02/17 02:50:45;;;;;;;17.10;15.30;;;9.90;1.00;;;;;;4938320;28;20038;-85
2022/02/17 02:53:14;;;;;;;16.00;14.20;;;10.00;1.00;;;;;;4957449;29;20110;-85
2022/02/17 02:55:44;;;;;;;15.40;13.85;;;10.00;1.00;;;;;;4958367;28;20024;-85
2022/02/17 02:58:11;;;;;;;15.43;13.70;;;10.50;1.00;;;;;;4957497;28;20086;-85
2022/02/17 03:00:37;;;;;;;14.38;12.98;;;10.10;1.00;;;;;;4942846;29;20027;-85
2022/02/17 03:03:02;;;;;;;14.35;12.85;;;10.50;1.00;;;;;;4957339;28;20090;-84
2022/02/17 03:05:28;;;;;;;14.23;12.77;;;10.20;1.00;;;;;;4956871;29;20031;-85
2022/02/17 03:07:55;;;;;;;13.95;12.35;;;10.30;1.00;;;;;;4957234;28;20035;-85
2022/02/17 03:10:21;;;;;;;14.43;12.98;;;10.10;1.00;;;;;;4958119;28;20031;-85
2022/02/17 03:12:51;;;;;;;15.10;13.38;;;10.40;1.00;;;;;;4957174;28;20027;-84
2022/02/17 03:15:17;;;;;;;14.48;12.93;;;10.40;1.00;;;;;;4957476;28;20039;-85
2022/02/17 03:17:42;;;;;;;15.07;13.57;;;10.30;1.00;;;;;;4956796;28;20037;-85
2022/02/17 03:20:08;;;;;;;16.25;13.80;;;10.30;1.00;;;;;;4956925;28;20114;-86
2022/02/17 03:22:36;;;;;;;15.30;13.90;;;10.30;1.00;;;;;;4957240;28;20023;-85
2022/02/17 03:25:03;;;;;;;16.00;13.68;;;10.40;1.00;;;;;;4957739;28;20055;-84
2022/02/17 03:27:29;;;;;;;16.65;14.60;;;10.30;1.00;;;;;;4957030;28;20016;-85
2022/02/17 03:29:55;;;;;;;14.63;13.15;;;10.30;1.00;;;;;;4957542;28;20434;-84
2022/02/17 03:32:20;;;;;;;15.02;13.52;;;10.40;1.00;;;;;;4956109;28;20502;-85
2022/02/17 03:34:46;;;;;;;15.25;13.02;;;10.40;1.00;;;;;;4956955;28;20028;-85
2022/02/17 03:37:12;;;;;;;14.82;13.32;;;10.40;1.00;;;;;;4956886;28;20035;-85
2022/02/17 03:39:37;;;;;;;17.27;14.10;;;10.40;1.00;;;;;;4956733;28;20054;-85
2022/02/17 03:42:05;;;;;;;15.55;13.93;;;10.40;1.00;;;;;;4956933;28;20030;-85
2022/02/17 03:44:30;;;;;;;15.13;13.55;;;10.30;1.00;;;;;;4955975;29;20064;-85
2022/02/17 03:46:56;;;;;;;15.73;13.98;;;10.40;1.00;;;;;;4956512;28;20437;-85
2022/02/17 03:49:23;;;;;;;15.15;13.65;;;10.40;1.00;;;;;;4956625;28;20027;-85
2022/02/17 03:51:49;;;;;;;15.20;13.60;;;10.50;1.00;;;;;;4956526;28;20107;-85
2022/02/17 03:54:15;;;;;;;14.38;12.85;;;10.50;1.00;;;;;;4956588;28;20042;-85
2022/02/17 03:56:41;;;;;;;13.60;11.82;;;10.50;1.00;;;;;;4956314;28;20027;-85
2022/02/17 03:59:08;;;;;;;12.40;11.10;;;10.50;1.00;;;;;;4956241;28;20479;-85
2022/02/17 04:01:35;;;;;;;10.75;9.65;;;10.60;1.00;;;;;;4955830;28;20111;-85
2022/02/17 04:04:02;;;;;;;12.60;10.32;;;10.90;1.00;;;;;;4956950;28;20166;-85
2022/02/17 04:06:28;;;;;;;11.90;10.13;;;10.70;1.00;;;;;;4956542;28;20024;-85
2022/02/17 04:08:54;;;;;;;13.80;12.50;;;10.50;1.00;;;;;;4956426;28;20039;-84
2022/02/17 04:11:19;;;;;;;13.15;11.77;;;10.40;1.00;;;;;;4955176;28;20473;-87
2022/02/17 04:13:46;;;;;;;15.57;13.93;;;10.50;1.00;;;;;;4955957;28;20526;-86
2022/02/17 04:16:12;;;;;;;13.80;12.38;;;10.30;1.00;;;;;;4955642;28;20028;-85
2022/02/17 04:18:38;;;;;;;15.95;14.05;;;10.40;1.00;;;;;;4957866;28;20535;-85
2022/02/17 04:21:05;;;;;;;14.43;12.93;;;10.40;1.00;;;;;;4956814;28;20109;-85
2022/02/17 04:23:31;;;;;;;14.50;12.48;;;10.50;1.00;;;;;;4955495;29;20043;-85
2022/02/17 04:25:56;;;;;;;14.18;12.32;;;10.50;1.00;;;;;;4957129;28;20020;-85
2022/02/17 04:28:22;;;;;;;14.93;13.32;;;10.30;1.00;;;;;;4957434;28;20381;-85
2022/02/17 04:30:48;;;;;;;15.88;13.80;;;10.20;1.00;;;;;;4955655;28;20059;-85
2022/02/17 04:33:13;;;;;;;15.98;14.00;;;10.50;1.00;;;;;;4956395;28;20028;-85
2022/02/17 04:35:39;;;;;;;18.52;16.10;;;10.30;1.00;;;;;;4954956;28;20063;-86
2022/02/17 04:38:05;;;;;;;17.67;15.70;;;10.30;1.00;;;;;;4955384;28;20031;-85
2022/02/17 04:43:15;;;;;;;16.33;14.65;;;10.20;1.00;;;;;;4955928;28;20038;-85
2022/02/17 04:45:40;;;;;;;16.95;15.15;;;10.40;1.00;;;;;;4955517;28;20019;-85
2022/02/17 04:48:06;;;;;;;16.35;14.63;;;10.40;1.00;;;;;;4956545;28;20035;-85
2022/02/17 04:50:32;;;;;;;17.33;14.68;;;10.40;1.00;;;;;;4954876;28;20103;-85
2022/02/17 04:52:58;;;;;;;15.35;13.73;;;10.40;1.00;;;;;;4955871;28;20019;-85
2022/02/17 04:55:24;;;;;;;14.93;13.32;;;10.50;1.00;;;;;;4955649;28;20514;-85
2022/02/17 04:57:50;;;;;;;14.13;12.68;;;10.60;1.00;;;;;;4955380;28;20070;-85
2022/02/17 05:00:16;;;;;;;13.98;12.57;;;10.60;1.00;;;;;;4954829;28;20110;-85
2022/02/17 05:02:41;;;;;;;14.13;12.70;;;10.60;1.00;;;;;;4954924;28;20035;-85
2022/02/17 05:05:07;;;;;;;13.63;12.23;;;10.70;1.00;;;;;;4955359;28;20497;-85
2022/02/17 05:07:33;;;;;;;14.23;12.70;;;10.70;1.00;;;;;;4955155;28;20019;-85
2022/02/17 05:09:59;;;;;;;13.63;12.32;;;10.60;1.00;;;;;;4955181;28;20129;-85
2022/02/17 05:12:25;;;;;;;13.98;12.57;;;11.00;1.00;;;;;;4954768;28;20027;-85
2022/02/17 05:14:51;;;;;;;15.13;11.60;;;10.70;1.00;;;;;;4954898;28;20043;-85
2022/02/17 05:17:17;;;;;;;13.55;12.15;;;10.60;1.00;;;;;;4954299;29;20535;-85
2022/02/17 05:19:43;;;;;;;13.93;12.45;;;10.50;1.00;;;;;;4955341;28;20023;-85
2022/02/17 05:22:08;;;;;;;14.32;12.32;;;10.70;1.00;;;;;;4955074;28;20384;-85
2022/02/17 05:24:34;;;;;;;15.23;13.65;;;10.40;1.00;;;;;;4940700;29;20062;-86
2022/02/17 05:27:00;;;;;;;15.60;12.75;;;10.50;1.00;;;;;;4955931;28;20080;-85
2022/02/17 05:29:25;;;;;;;13.35;12.05;;;10.60;1.00;;;;;;4936793;29;20023;-85
2022/02/17 05:31:51;;;;;;;13.93;11.77;;;10.70;1.00;;;;;;4955196;28;20049;-85
2022/02/17 05:34:20;;;;;;;12.75;10.18;;;10.70;1.00;;;;;;4954975;28;20031;-85
2022/02/17 05:36:45;;;;;;;12.70;10.25;;;10.80;1.00;;;;;;4954979;28;20389;-85
2022/02/17 05:39:11;;;;;;;13.80;12.07;;;10.70;1.00;;;;;;4954858;28;20054;-86
2022/02/17 05:41:37;;;;;;;14.80;11.48;;;10.70;1.00;;;;;;4954515;28;20027;-86
2022/02/17 05:44:03;;;;;;;11.15;10.00;;;10.70;1.00;;;;;;4954088;28;20033;-85
2022/02/17 05:46:29;;;;;;;10.65;9.55;;;10.80;1.00;;;;;;4956630;28;20031;-85
2022/02/17 05:48:55;;;;;;;8.65;7.75;;;10.80;1.00;;;;;;4954785;28;20039;-85
2022/02/17 05:51:21;;;;;;;8.32;6.88;;;11.30;1.00;;;;;;4954647;28;20031;-85
2022/02/17 05:53:47;;;;;;;7.55;6.10;;;10.90;1.00;;;;;;4955059;28;20060;-85
2022/02/17 05:56:13;;;;;;;8.73;4.63;;;10.90;1.00;;;;;;4954466;29;20034;-85
2022/02/17 05:58:39;;;;;;;6.22;4.38;;;11.00;1.00;;;;;;4954080;28;20027;-85
2022/02/17 06:01:05;;;;;;;8.50;6.97;;;11.40;1.00;;;;;;4954791;28;20047;-85
2022/02/17 06:03:31;;;;;;;4.82;4.43;;;11.00;1.00;;;;;;4954463;28;20059;-85
2022/02/17 06:05:57;;;;;;;3.72;3.42;;;11.00;1.00;;;;;;4954551;28;20019;-85
2022/02/17 06:08:23;;;;;;;3.53;3.22;;;11.10;1.00;;;;;;4953560;29;20050;-85
2022/02/17 06:10:49;;;;;;;3.00;2.70;;;11.00;1.00;;;;;;4954386;28;20484;-85
2022/02/17 06:13:16;;;;;;;5.28;3.63;;;11.10;1.00;;;;;;4954197;28;20443;-86
2022/02/17 06:15:41;;;;;;;7.15;4.60;;;11.10;1.00;;;;;;4954571;28;20035;-85
2022/02/17 06:18:07;;;;;;;5.60;3.75;;;11.00;1.00;;;;;;4954329;28;20034;-85
2022/02/17 06:20:33;;;;;;;8.18;4.68;;;11.10;1.00;;;;;;4953738;28;20027;-84
2022/02/17 06:22:59;;;;;;;5.22;3.25;;;11.10;1.00;;;;;;4954201;28;20027;-85
2022/02/17 06:25:25;;;;;;;3.30;2.40;;;11.00;1.00;;;;;;4954500;28;20042;-85
2022/02/17 06:27:51;;;;;;;3.42;2.10;;;11.00;1.00;;;;;;4953585;28;20038;-85
2022/02/17 06:30:18;;;;;;;2.47;1.88;;;11.10;1.00;;;;;;4953152;28;20023;-85
2022/02/17 06:32:48;;;;;;;4.82;2.20;;;11.20;1.00;;;;;;4953505;28;20030;-86
2022/02/17 06:35:17;;;;;;;3.65;2.03;;;11.20;1.00;;;;;;4951465;29;20039;-86
2022/02/17 06:37:42;;;;;;;4.20;2.55;;;11.10;1.00;;;;;;4953888;28;20027;-85
2022/02/17 06:40:09;;;;;;;3.45;2.28;;;11.20;1.00;;;;;;4954079;28;20043;-85
2022/02/17 06:42:35;;;;;;;2.55;2.00;;;11.30;1.00;;;;;;4953800;28;20106;-85
2022/02/17 06:45:01;;;;;;;2.28;1.90;;;11.30;1.00;;;;;;4954588;28;20579;-85
2022/02/17 06:47:27;;;;;;;2.35;2.08;;;11.30;1.00;;;;;;4949145;29;20020;-85
2022/02/17 06:49:53;;;;;;;2.25;2.05;;;11.30;1.00;;;;;;4953910;28;20560;-85
2022/02/17 06:52:18;;;;;;;2.65;2.00;;;11.30;1.00;;;;;;4947712;28;20457;-85
2022/02/17 06:54:44;;;;;;;3.15;1.95;;;11.40;1.00;;;;;;4944260;28;20559;-85
2022/02/17 06:57:10;;;;;;;2.47;1.95;;;11.40;1.00;;;;;;4953748;28;20114;-85
2022/02/17 06:59:36;;;;;;;2.63;1.70;;;11.40;1.00;;;;;;4953010;28;20495;-85
2022/02/17 07:02:02;;;;;;;2.05;1.85;;;11.40;1.00;;;;;;4953906;28;20029;-85
2022/02/17 07:04:27;;;;;;;1.63;1.50;;;11.50;1.00;;;;;;4954400;28;20063;-85
2022/02/17 07:06:53;;;;;;;2.45;1.85;;;11.80;1.00;;;;;;4953778;28;20031;-85
2022/02/17 07:09:19;;;;;;;1.85;1.40;;;11.50;1.00;;;;;;4953873;28;20031;-84
2022/02/17 07:11:45;;;;;;;2.83;1.50;;;11.50;1.00;;;;;;4952960;28;20058;-84
2022/02/17 07:14:11;;;;;;;2.25;1.67;;;11.50;1.00;;;;;;4953142;28;20043;-84
2022/02/17 07:16:36;;;;;;;3.70;1.88;;;11.50;1.00;;;;;;4953471;28;20026;-83
2022/02/17 07:19:02;;;;;;;2.20;2.00;;;11.90;1.00;;;;;;4953610;28;20027;-87
2022/02/17 07:21:28;;;;;;;3.85;1.70;;;11.60;1.00;;;;;;4953632;28;20035;-84
2022/02/17 07:23:54;;;;;;;2.05;1.67;;;11.60;1.00;;;;;;4953735;28;20398;-85
2022/02/17 07:26:19;;;;;;;4.93;1.63;;;11.80;99.90;;;;;;4953089;29;20035;-88
2022/02/17 07:28:45;;;;;;;2.05;1.52;;;11.70;1.00;;;;;;4953849;28;20281;-86
2022/02/17 07:31:13;;;;;;;9.02;4.60;;;11.80;1.00;;;;;;4953379;28;20054;-84
2022/02/17 07:33:39;;;;;;;12.90;8.27;;;12.00;1.00;;;;;;4954396;28;20039;-84
2022/02/17 07:36:07;;;;;;;17.65;13.85;;;11.90;1.00;;;;;;4954873;28;20450;-84
2022/02/17 07:38:34;;;;;;;20.40;16.35;;;11.80;1.00;;;;;;4955380;28;20051;-84
2022/02/17 07:40:59;;;;;;;20.67;17.45;;;11.60;1.00;;;;;;4956493;28;20038;-85
2022/02/17 07:43:25;;;;;;;21.92;16.83;;;11.60;1.00;;;;;;4957064;28;20032;-84
2022/02/17 07:45:51;;;;;;;21.27;17.05;;;11.60;1.00;;;;;;4956385;28;20580;-84
2022/02/17 07:48:17;;;;;;;20.58;16.85;;;11.60;1.00;;;;;;4957181;28;20047;-84
2022/02/17 07:50:42;;;;;;;18.48;16.48;;;11.70;1.00;;;;;;4956534;28;20382;-84
2022/02/17 07:53:08;;;;;;;20.35;16.08;;;11.60;1.00;;;;;;4961266;28;20105;-91
2022/02/17 07:55:34;;;;;;;18.75;16.60;;;11.40;1.00;;;;;;4960057;28;20039;-94
2022/02/17 07:58:04;;;;;;;21.20;17.83;;;11.50;1.00;;;;;;4957839;28;20027;-93
2022/02/17 08:00:30;;;;;;;24.85;16.45;;;11.60;1.00;;;;;;4958627;28;20114;-92
2022/02/17 08:02:56;;;;;;;21.90;16.58;;;11.40;1.00;;;;;;4958887;28;20039;-88
2022/02/17 08:05:21;;;;;;;21.95;16.13;;;11.40;1.00;;;;;;4940151;29;20488;-91
2022/02/17 08:07:47;;;;;;;19.77;16.02;;;11.30;1.00;;;;;;4956358;28;20034;-94
2022/02/17 08:10:12;;;;;;;18.48;15.90;;;11.40;1.00;;;;;;4956872;28;20031;-89
2022/02/17 08:12:40;;;;;;;20.65;16.63;;;11.40;1.00;;;;;;4956613;28;20066;-89
2022/02/17 08:15:06;;;;;;;20.52;16.52;;;11.50;1.00;;;;;;4956891;28;20038;-93
2022/02/17 08:17:32;;;;;;;25.02;16.77;;;11.50;1.00;;;;;;4956388;29;20031;-91
2022/02/17 08:19:58;;;;;;;19.67;15.80;;;11.60;1.00;;;;;;4958454;28;20392;-90
2022/02/17 08:22:23;;;;;;;19.60;16.45;;;11.50;1.00;;;;;;4957017;28;20075;-91
2022/02/17 08:24:49;;;;;;;23.35;16.88;;;11.50;1.00;;;;;;4942555;29;20027;-92
2022/02/17 08:27:14;;;;;;;22.85;17.90;;;11.50;1.00;;;;;;4956805;28;20393;-92
2022/02/17 08:29:42;;;;;;;19.15;16.77;;;11.50;1.00;;;;;;4956016;28;20104;-90
2022/02/17 08:32:08;;;;;;;19.73;16.75;;;11.60;1.00;;;;;;4956596;28;20046;-92
2022/02/17 08:34:34;;;;;;;22.17;16.45;;;11.80;1.00;;;;;;4956570;28;20039;-92
2022/02/17 08:37:00;;;;;;;19.52;16.08;;;12.30;1.00;;;;;;4957758;28;20027;-92
2022/02/17 08:39:25;;;;;;;18.15;14.75;;;12.80;1.00;;;;;;4956317;28;20058;-91
2022/02/17 08:41:51;;;;;;;18.85;14.60;;;12.90;1.00;;;;;;4956178;28;20102;-91
2022/02/17 08:44:17;;;;;;;17.35;15.13;;;13.10;1.00;;;;;;4940349;29;20042;-96
2022/02/17 08:46:42;;;;;;;17.95;14.55;;;13.10;1.00;;;;;;4959183;28;20114;-93
2022/02/17 08:49:08;;;;;;;16.90;15.07;;;13.10;1.00;;;;;;4956343;28;20443;-92
2022/02/17 08:51:35;;;;;;;19.70;14.75;;;13.00;1.00;;;;;;4959252;28;20019;-92
2022/02/17 08:54:03;;;;;;;16.40;13.93;;;13.00;1.00;;;;;;4941555;28;20039;-96
2022/02/17 08:56:28;;;;;;;16.90;12.02;;;15.40;1.00;;;;;;4952579;29;20033;-91
2022/02/17 08:58:54;;;;;;;16.98;11.70;;;15.50;1.00;;;;;;4956565;28;20134;-89
2022/02/17 09:01:19;;;;;;;16.67;12.48;;;14.90;1.00;;;;;;4957556;28;20042;-91
2022/02/17 09:03:45;;;;;;;16.02;12.55;;;14.30;1.00;;;;;;4942640;29;20399;-92
2022/02/17 09:06:11;;;;;;;18.67;14.40;;;13.90;1.00;;;;;;4941171;28;20066;-92
2022/02/17 09:08:37;;;;;;;17.52;14.18;;;13.80;1.00;;;;;;4954881;28;20023;-88
2022/02/17 09:11:04;;;;;;;17.75;14.30;;;13.70;1.00;;;;;;4958692;28;20106;-91
2022/02/17 09:13:29;;;;;;;16.15;14.00;;;14.00;1.00;;;;;;4956878;28;20069;-91
2022/02/17 09:15:56;;;;;;;17.33;12.88;;;15.30;1.00;;;;;;4941303;29;20472;-91
2022/02/17 09:18:21;;;;;;;14.63;13.13;;;15.50;1.00;;;;;;4955525;28;20027;-91
2022/02/17 09:20:47;;;;;;;15.88;14.05;;;15.20;1.00;;;;;;4938173;28;20273;-91
2022/02/17 09:23:13;;;;;;;15.65;13.55;;;15.00;1.00;;;;;;4955122;29;20016;-91
2022/02/17 09:25:38;;;;;;;14.05;12.55;;;16.00;1.00;;;;;;4955368;28;20411;-92
2022/02/17 09:28:05;;;;;;;15.48;13.18;;;15.80;1.00;;;;;;4954930;28;20082;-91
2022/02/17 09:30:31;;;;;;;14.88;13.10;;;15.20;1.00;;;;;;4941336;29;20089;-91
2022/02/17 09:32:57;;;;;;;15.27;12.82;;;16.30;1.00;;;;;;4938515;28;20479;-91
2022/02/17 09:35:22;;;;;;;14.40;12.90;;;16.00;1.00;;;;;;4939098;29;20043;-93
2022/02/17 09:37:48;;;;;;;17.83;15.55;;;15.30;1.00;;;;;;4956744;28;20090;-94
2022/02/17 09:40:13;;;;;;;16.42;14.52;;;15.40;1.00;;;;;;4957659;28;20420;-91
2022/02/17 09:42:41;;;;;;;17.38;14.45;;;15.70;1.00;;;;;;4957198;28;20020;-91
2022/02/17 09:45:09;;;;;;;16.17;14.48;;;15.60;1.00;;;;;;4954542;28;20041;-91
2022/02/17 09:47:37;;;;;;;15.25;13.65;;;15.50;1.00;;;;;;4954277;28;20028;-91
2022/02/17 09:50:09;;;;;;;17.92;13.75;;;15.80;1.00;;;;;;4954141;28;20078;-91
2022/02/17 09:52:35;;;;;;;15.60;13.77;;;15.60;1.00;;;;;;4940000;29;20045;-91
2022/02/17 09:55:02;;;;;;;15.68;13.88;;;15.60;1.00;;;;;;4939993;29;20102;-90
2022/02/17 09:57:31;;;;;;;15.27;12.63;;;15.50;1.00;;;;;;4940390;29;20562;-90
2022/02/17 09:59:57;;;;;;;16.48;12.85;;;15.50;1.00;;;;;;4956256;28;20122;-90
2022/02/17 10:02:25;;;;;;;15.73;13.05;;;15.50;1.00;;;;;;4937951;29;20114;-92
2022/02/17 10:04:58;;;;;;;15.88;14.13;;;15.50;1.00;;;;;;4955193;28;20039;-91
2022/02/17 10:07:39;;;;;;;15.90;14.23;;;15.60;1.00;;;;;;4960710;28;20173;-90
2022/02/17 10:10:16;;;;;;;15.75;13.32;;;15.40;1.00;;;;;;4939839;29;20085;-95
2022/02/17 10:12:59;;;;;;;13.93;12.32;;;15.40;1.00;;;;;;4956051;28;20046;-93
2022/02/17 10:15:35;;;;;;;13.05;11.75;;;15.70;1.00;;;;;;4959835;28;20090;-91
2022/02/17 10:18:05;;;;;;;13.95;11.43;;;15.80;1.00;;;;;;4940779;28;20117;-96
2022/02/17 10:20:51;;;;;;;11.05;8.90;;;16.10;1.00;;;;;;4950035;29;20472;-91
2022/02/17 10:23:17;;;;;;;12.60;11.30;;;17.80;1.00;;;;;;4952340;29;20496;-91
2022/02/17 10:26:02;;;;;;;12.25;11.05;;;17.50;1.00;;;;;;4954837;28;20034;-91
2022/02/17 10:28:31;;;;;;;13.50;11.98;;;19.40;1.00;;;;;;4959883;28;20035;-91
2022/02/17 10:30:58;;;;;;;13.27;11.02;;;18.10;1.00;;;;;;4954567;28;20110;-91
2022/02/17 10:33:23;;;;;;;12.73;11.20;;;17.60;1.00;;;;;;4940054;29;20507;-91
2022/02/17 10:35:54;;;;;;;11.05;10.05;;;18.30;1.00;;;;;;4955093;28;20038;-89
2022/02/17 10:38:21;;;;;;;12.85;10.82;;;19.10;1.00;;;;;;4953692;28;20047;-94
2022/02/17 10:40:53;;;;;;;11.57;10.35;;;18.40;1.00;;;;;;4954353;28;20027;-94
2022/02/17 10:43:20;;;;;;;11.50;8.57;;;18.10;1.00;;;;;;4955603;28;20400;-92
2022/02/17 10:45:48;;;;;;;6.57;5.90;;;20.80;1.00;;;;;;4953893;28;20119;-91
2022/02/17 10:48:20;;;;;;;4.70;4.30;;;22.50;1.00;;;;;;4955734;28;20031;-93
2022/02/17 10:51:02;;;;;;;5.07;3.63;;;22.80;1.00;;;;;;4956782;28;20027;-95
2022/02/17 10:53:30;;;;;;;5.93;5.28;;;20.80;1.00;;;;;;4951189;29;20016;-95
2022/02/17 10:56:03;;;;;;;5.93;4.78;;;19.80;1.00;;;;;;4955763;28;20063;-96
2022/02/17 10:58:31;;;;;;;5.43;4.72;;;20.20;1.00;;;;;;4955577;28;20034;-92
2022/02/17 11:01:02;;;;;;;5.47;3.30;;;20.20;1.00;;;;;;4961206;28;20031;-95
2022/02/17 11:03:29;;;;;;;5.22;3.80;;;19.90;1.00;;;;;;4955089;28;20031;-89
2022/02/17 11:05:55;;;;;;;3.45;2.63;;;19.70;1.00;;;;;;4954455;28;20455;-92
2022/02/17 11:08:21;;;;;;;3.25;2.92;;;20.10;1.00;;;;;;4955284;29;20061;-96
2022/02/17 11:10:47;;;;;;;1.50;1.40;;;20.70;1.00;;;;;;4956265;28;20022;-96
2022/02/17 11:13:20;;;;;;;1.00;0.90;;;20.40;1.00;;;;;;4944332;28;20039;-90
2022/02/17 11:15:47;;;;;;;1.50;1.00;;;21.30;1.00;;;;;;4957753;28;20031;-91
2022/02/17 11:18:16;;;;;;;0.98;0.88;;;22.30;1.00;;;;;;4957350;28;20038;-91
2022/02/17 11:20:42;;;;;;;1.05;0.90;;;26.40;99.90;;;;;;4943247;28;20034;-95
2022/02/17 11:23:08;;;;;;;1.73;1.20;;;27.80;99.90;;;;;;4944355;29;20082;-94
2022/02/17 11:25:38;;;;;;;1.95;1.70;;;28.70;99.90;;;;;;4943667;29;20023;-95
2022/02/17 11:28:09;;;;;;;2.00;1.80;;;29.90;99.90;;;;;;4946487;29;20023;-96
2022/02/17 11:30:37;;;;;;;2.45;2.20;;;30.60;99.90;;;;;;4944351;29;20423;-91
2022/02/17 11:33:28;;;;;;;3.08;2.78;;;30.80;99.90;;;;;;4945216;28;20095;-88
2022/02/17 11:36:08;;;;;;;2.38;2.17;;;30.50;99.90;;;;;;4956749;28;20049;-91
2022/02/17 11:38:41;;;;;;;2.72;2.38;;;30.40;99.90;;;;;;4936906;28;20058;-88
2022/02/17 11:41:08;;;;;;;2.65;2.45;;;31.50;99.90;;;;;;4959324;28;20031;-96
2022/02/17 11:43:36;;;;;;;2.60;2.40;;;30.30;99.90;;;;;;4944332;29;20019;-92
2022/02/17 11:46:02;;;;;;;3.50;2.08;;;26.60;99.90;;;;;;4957528;28;20035;-94
2022/02/17 11:48:40;;;;;;;1.70;1.60;;;25.40;99.90;;;;;;4957587;28;20555;-91
2022/02/17 11:51:22;;;;;;;1.85;1.58;;;23.30;99.90;;;;;;4944659;28;20027;-91
2022/02/17 11:54:14;;;;;;;2.00;1.77;;;24.80;99.90;;;;;;4940982;28;20071;-93
2022/02/17 11:56:44;;;;;;;1.42;1.33;;;27.70;99.90;;;;;;4954118;28;20031;-94
2022/02/17 11:59:24;;;;;;;2.25;1.70;;;28.10;99.90;;;;;;4958651;28;20035;-93
2022/02/17 12:01:51;;;;;;;1.58;1.48;;;29.10;99.90;;;;;;4958243;28;20038;-88
2022/02/17 12:04:25;;;;;;;1.55;1.20;;;28.70;99.90;;;;;;4959032;28;20046;-90
2022/02/17 12:06:56;;;;;;;1.30;1.20;;;28.80;99.90;;;;;;4959745;28;20027;-93
2022/02/17 12:09:44;;;;;;;1.70;1.50;;;29.30;99.90;;;;;;4959756;28;20116;-96
2022/02/17 12:12:13;;;;;;;1.50;1.40;;;30.00;99.90;;;;;;4928706;28;20019;-92
2022/02/17 12:14:47;;;;;;;3.15;1.75;;;29.70;99.90;;;;;;4939462;28;20050;-89
2022/02/17 12:17:13;;;;;;;1.33;1.20;;;25.90;99.90;;;;;;4958405;28;20035;-90
2022/02/17 12:19:39;;;;;;;3.97;1.27;;;23.90;99.90;;;;;;4942303;29;20046;-90
2022/02/17 12:22:13;;;;;;;1.52;1.30;;;22.90;99.90;;;;;;4941704;29;20483;-90
2022/02/17 12:24:42;;;;;;;1.30;1.20;;;22.10;99.90;;;;;;4941360;29;20027;-93
2022/02/17 12:27:21;;;;;;;2.75;2.55;;;21.30;99.90;;;;;;4956304;28;20031;-88
2022/02/17 12:29:47;;;;;;;1.45;1.35;;;20.80;99.90;;;;;;4955907;28;20026;-90
2022/02/17 12:32:19;;;;;;;2.08;1.40;;;20.50;99.90;;;;;;4956354;28;20047;-88
2022/02/17 12:34:46;;;;;;;3.25;1.00;;;20.30;99.90;;;;;;4956329;28;20032;-89
2022/02/17 12:37:19;;;;;;;1.48;1.05;;;19.80;99.90;;;;;;4957231;28;20023;-89
2022/02/17 12:39:46;;;;;;;3.28;1.00;;;21.90;99.90;;;;;;4955570;28;20054;-89
2022/02/17 12:42:11;;;;;;;1.05;1.00;;;23.90;99.90;;;;;;4957216;28;20019;-90
2022/02/17 12:44:39;;;;;;;1.92;1.23;;;23.70;99.90;;;;;;4938205;28;20031;-88
2022/02/17 12:47:12;;;;;;;1.60;1.00;;;22.00;99.90;;;;;;4955433;28;20035;-89
2022/02/17 12:49:39;;;;;;;2.38;1.20;;;20.70;99.90;;;;;;4955787;28;20031;-89
2022/02/17 12:52:14;;;;;;;2.17;1.13;;;19.90;99.90;;;;;;4956092;28;20043;-89
2022/02/17 12:54:43;;;;;;;1.77;1.05;;;19.70;99.90;;;;;;4955572;28;20039;-90
2022/02/17 12:57:14;;;;;;;2.65;1.27;;;21.80;99.90;;;;;;4955961;28;20102;-90
2022/02/17 12:59:40;;;;;;;1.23;1.10;;;24.30;99.90;;;;;;4941050;28;20113;-90
2022/02/17 13:02:06;;;;;;;1.70;1.23;;;24.20;99.90;;;;;;4934858;29;20027;-89
2022/02/17 13:04:32;;;;;;;1.70;1.20;;;23.40;99.90;;;;;;4955538;28;20038;-90
2022/02/17 13:07:03;;;;;;;2.47;1.05;;;23.30;99.90;;;;;;4957387;28;20067;-91
2022/02/17 13:09:29;;;;;;;1.55;1.45;;;21.40;99.90;;;;;;4955278;28;20122;-90